sensor_id;sensor_type;location;lat;lon;timestamp;pressure;altitude;pressure_sealevel;temperature;humidity
42415;BME280;28058;46.344;17.786;2023-03-23T00:00:07;118336.50;;;-144.97;67.54
42415;BME280;28058;46.344;17.786;2023-03-23T00:02:34;118336.50;;;-144.97;66.21
42415;BME280;28058;46.344;17.786;2023-03-23T00:05:01;118336.50;;;-144.97;64.07
42415;BME280;28058;46.344;17.786;2023-03-23T00:07:28;118336.50;;;-144.97;61.48
42415;BME280;28058;46.344;17.786;2023-03-23T00:09:54;118336.50;;;-144.97;61.13
42415;BME280;28058;46.344;17.786;2023-03-23T00:12:21;118336.50;;;-144.97;61.32
42415;BME280;28058;46.344;17.786;2023-03-23T00:14:46;118336.50;;;-144.97;61.81
42415;BME280;28058;46.344;17.786;2023-03-23T00:17:13;118336.50;;;-144.97;63.07
42415;BME280;28058;46.344;17.786;2023-03-23T00:19:39;118336.50;;;-144.97;66.01
42415;BME280;28058;46.344;17.786;2023-03-23T00:22:12;118336.50;;;-144.97;66.86
42415;BME280;28058;46.344;17.786;2023-03-23T00:24:38;118336.50;;;-144.97;68.16
42415;BME280;28058;46.344;17.786;2023-03-23T00:27:03;118336.50;;;-144.97;69.70
42415;BME280;28058;46.344;17.786;2023-03-23T00:29:28;118336.50;;;-144.97;70.95
42415;BME280;28058;46.344;17.786;2023-03-23T00:31:54;118336.50;;;-144.97;71.65
42415;BME280;28058;46.344;17.786;2023-03-23T00:34:22;118336.50;;;-144.97;72.66
42415;BME280;28058;46.344;17.786;2023-03-23T00:36:50;118336.50;;;-144.97;70.22
42415;BME280;28058;46.344;17.786;2023-03-23T00:39:16;118336.50;;;-144.97;69.24
42415;BME280;28058;46.344;17.786;2023-03-23T00:41:46;118336.50;;;-144.97;67.66
42415;BME280;28058;46.344;17.786;2023-03-23T00:44:12;118336.50;;;-144.97;63.74
42415;BME280;28058;46.344;17.786;2023-03-23T00:46:45;118336.50;;;-144.97;61.70
42415;BME280;28058;46.344;17.786;2023-03-23T00:49:14;118336.50;;;-144.97;61.33
42415;BME280;28058;46.344;17.786;2023-03-23T00:51:40;118336.50;;;-144.97;60.22
42415;BME280;28058;46.344;17.786;2023-03-23T00:54:06;118336.50;;;-144.97;60.28
42415;BME280;28058;46.344;17.786;2023-03-23T00:56:32;118336.50;;;-144.97;59.85
42415;BME280;28058;46.344;17.786;2023-03-23T00:58:57;118336.50;;;-144.97;59.31
42415;BME280;28058;46.344;17.786;2023-03-23T01:01:23;118336.50;;;-144.97;58.60
42415;BME280;28058;46.344;17.786;2023-03-23T01:03:49;118336.50;;;-144.97;59.21
42415;BME280;28058;46.344;17.786;2023-03-23T01:06:15;118336.50;;;-144.97;58.70
42415;BME280;28058;46.344;17.786;2023-03-23T01:08:41;118336.50;;;-144.97;58.56
42415;BME280;28058;46.344;17.786;2023-03-23T01:11:14;118336.50;;;-144.97;57.98
42415;BME280;28058;46.344;17.786;2023-03-23T01:13:40;118336.50;;;-144.97;57.41
42415;BME280;28058;46.344;17.786;2023-03-23T01:16:07;118336.50;;;-144.97;57.66
42415;BME280;28058;46.344;17.786;2023-03-23T01:18:33;118336.50;;;-144.97;56.88
42415;BME280;28058;46.344;17.786;2023-03-23T01:21:03;118336.50;;;-144.97;55.89
42415;BME280;28058;46.344;17.786;2023-03-23T01:23:28;118336.50;;;-144.97;54.95
42415;BME280;28058;46.344;17.786;2023-03-23T01:25:54;118336.50;;;-144.97;54.83
42415;BME280;28058;46.344;17.786;2023-03-23T01:28:23;118336.50;;;-144.97;55.52
42415;BME280;28058;46.344;17.786;2023-03-23T01:30:48;118336.50;;;-144.97;54.73
42415;BME280;28058;46.344;17.786;2023-03-23T01:33:14;118336.50;;;-144.97;54.63
42415;BME280;28058;46.344;17.786;2023-03-23T01:35:39;118336.50;;;-144.97;54.24
42415;BME280;28058;46.344;17.786;2023-03-23T01:38:05;118336.50;;;-144.97;53.91
42415;BME280;28058;46.344;17.786;2023-03-23T01:40:30;118336.50;;;-144.97;53.79
42415;BME280;28058;46.344;17.786;2023-03-23T01:42:56;118336.50;;;-144.97;53.88
42415;BME280;28058;46.344;17.786;2023-03-23T01:45:34;118336.50;;;-144.97;54.21
42415;BME280;28058;46.344;17.786;2023-03-23T01:48:15;118336.50;;;-144.97;53.57
42415;BME280;28058;46.344;17.786;2023-03-23T01:50:50;118336.50;;;-144.97;53.12
42415;BME280;28058;46.344;17.786;2023-03-23T01:53:17;118336.50;;;-144.97;52.64
42415;BME280;28058;46.344;17.786;2023-03-23T01:55:43;118336.50;;;-144.97;52.79
42415;BME280;28058;46.344;17.786;2023-03-23T01:58:13;118336.50;;;-144.97;51.82
42415;BME280;28058;46.344;17.786;2023-03-23T02:00:40;118336.50;;;-144.97;52.10
42415;BME280;28058;46.344;17.786;2023-03-23T02:03:07;118336.50;;;-144.97;51.98
42415;BME280;28058;46.344;17.786;2023-03-23T02:05:38;118336.50;;;-144.97;51.82
42415;BME280;28058;46.344;17.786;2023-03-23T02:08:04;118336.50;;;-144.97;51.56
42415;BME280;28058;46.344;17.786;2023-03-23T02:10:32;118336.50;;;-144.97;53.27
42415;BME280;28058;46.344;17.786;2023-03-23T02:12:58;118336.50;;;-144.97;52.75
42415;BME280;28058;46.344;17.786;2023-03-23T02:15:25;118336.50;;;-144.97;52.53
42415;BME280;28058;46.344;17.786;2023-03-23T02:25:53;118336.50;;;-144.97;55.01
42415;BME280;28058;46.344;17.786;2023-03-23T02:31:05;118336.50;;;-144.97;56.68
42415;BME280;28058;46.344;17.786;2023-03-23T02:33:50;118336.50;;;-144.97;57.25
42415;BME280;28058;46.344;17.786;2023-03-23T02:36:22;118336.50;;;-144.97;58.31
42415;BME280;28058;46.344;17.786;2023-03-23T02:38:54;118336.50;;;-144.97;58.33
42415;BME280;28058;46.344;17.786;2023-03-23T02:41:21;118336.50;;;-144.97;58.87
42415;BME280;28058;46.344;17.786;2023-03-23T02:43:49;118336.50;;;-144.97;59.11
42415;BME280;28058;46.344;17.786;2023-03-23T02:46:16;118336.50;;;-144.97;60.39
42415;BME280;28058;46.344;17.786;2023-03-23T02:48:42;118336.50;;;-144.97;60.49
42415;BME280;28058;46.344;17.786;2023-03-23T02:51:10;118336.50;;;-144.97;60.83
42415;BME280;28058;46.344;17.786;2023-03-23T02:53:37;118336.50;;;-144.97;60.49
42415;BME280;28058;46.344;17.786;2023-03-23T02:56:06;118336.50;;;-144.97;61.05
42415;BME280;28058;46.344;17.786;2023-03-23T02:58:32;118336.50;;;-144.97;62.14
42415;BME280;28058;46.344;17.786;2023-03-23T03:00:58;118336.50;;;-144.97;62.33
42415;BME280;28058;46.344;17.786;2023-03-23T03:03:26;118336.50;;;-144.97;62.18
42415;BME280;28058;46.344;17.786;2023-03-23T03:11:18;118336.50;;;-144.97;62.74
42415;BME280;28058;46.344;17.786;2023-03-23T03:18:46;118336.50;;;-144.97;61.65
42415;BME280;28058;46.344;17.786;2023-03-23T03:21:15;118336.50;;;-144.97;61.78
42415;BME280;28058;46.344;17.786;2023-03-23T03:23:45;118336.50;;;-144.97;61.92
42415;BME280;28058;46.344;17.786;2023-03-23T03:26:14;118336.50;;;-144.97;61.95
42415;BME280;28058;46.344;17.786;2023-03-23T03:28:43;118336.50;;;-144.97;62.47
42415;BME280;28058;46.344;17.786;2023-03-23T03:31:09;118336.50;;;-144.97;62.06
42415;BME280;28058;46.344;17.786;2023-03-23T03:33:34;118336.50;;;-144.97;62.08
42415;BME280;28058;46.344;17.786;2023-03-23T03:36:01;118336.50;;;-144.97;62.27
42415;BME280;28058;46.344;17.786;2023-03-23T03:38:28;118336.50;;;-144.97;62.24
42415;BME280;28058;46.344;17.786;2023-03-23T03:40:54;118336.50;;;-144.97;62.43
42415;BME280;28058;46.344;17.786;2023-03-23T03:43:19;118336.50;;;-144.97;62.47
42415;BME280;28058;46.344;17.786;2023-03-23T03:45:45;118336.50;;;-144.97;62.64
42415;BME280;28058;46.344;17.786;2023-03-23T03:48:11;118336.50;;;-144.97;62.28
42415;BME280;28058;46.344;17.786;2023-03-23T03:50:37;118336.50;;;-144.97;62.20
42415;BME280;28058;46.344;17.786;2023-03-23T03:53:04;118336.50;;;-144.97;62.30
42415;BME280;28058;46.344;17.786;2023-03-23T03:55:31;118336.50;;;-144.97;62.53
42415;BME280;28058;46.344;17.786;2023-03-23T03:58:00;118336.50;;;-144.97;62.44
42415;BME280;28058;46.344;17.786;2023-03-23T04:00:26;118336.50;;;-144.97;62.73
42415;BME280;28058;46.344;17.786;2023-03-23T04:02:52;118336.50;;;-144.97;62.44
42415;BME280;28058;46.344;17.786;2023-03-23T04:05:23;118336.50;;;-144.97;61.76
42415;BME280;28058;46.344;17.786;2023-03-23T04:07:49;118336.50;;;-144.97;61.84
42415;BME280;28058;46.344;17.786;2023-03-23T04:10:17;118336.50;;;-144.97;61.48
42415;BME280;28058;46.344;17.786;2023-03-23T04:12:45;118336.50;;;-144.97;61.36
42415;BME280;28058;46.344;17.786;2023-03-23T04:15:11;118336.50;;;-144.97;61.18
42415;BME280;28058;46.344;17.786;2023-03-23T04:17:36;118336.50;;;-144.97;61.54
42415;BME280;28058;46.344;17.786;2023-03-23T04:20:03;118336.50;;;-144.97;60.79
42415;BME280;28058;46.344;17.786;2023-03-23T04:22:37;118336.50;;;-144.97;60.47
42415;BME280;28058;46.344;17.786;2023-03-23T04:25:03;118336.50;;;-144.97;60.28
42415;BME280;28058;46.344;17.786;2023-03-23T04:27:31;118336.50;;;-144.97;60.11
42415;BME280;28058;46.344;17.786;2023-03-23T04:29:57;118336.50;;;-144.97;59.63
42415;BME280;28058;46.344;17.786;2023-03-23T04:32:27;118336.50;;;-144.97;59.63
42415;BME280;28058;46.344;17.786;2023-03-23T04:35:00;118336.50;;;-144.97;59.35
42415;BME280;28058;46.344;17.786;2023-03-23T04:37:26;118336.50;;;-144.97;59.72
42415;BME280;28058;46.344;17.786;2023-03-23T04:39:57;118336.50;;;-144.97;59.48
42415;BME280;28058;46.344;17.786;2023-03-23T04:42:29;118336.50;;;-144.97;59.21
42415;BME280;28058;46.344;17.786;2023-03-23T04:44:56;118336.50;;;-144.97;59.44
42415;BME280;28058;46.344;17.786;2023-03-23T04:47:22;118336.50;;;-144.97;59.96
42415;BME280;28058;46.344;17.786;2023-03-23T04:49:47;118336.50;;;-144.97;59.65
42415;BME280;28058;46.344;17.786;2023-03-23T04:52:13;118336.50;;;-144.97;58.96
42415;BME280;28058;46.344;17.786;2023-03-23T04:54:39;118336.50;;;-144.97;58.78
42415;BME280;28058;46.344;17.786;2023-03-23T04:57:04;118336.50;;;-144.97;60.77
42415;BME280;28058;46.344;17.786;2023-03-23T04:59:30;118336.50;;;-144.97;59.60
42415;BME280;28058;46.344;17.786;2023-03-23T05:01:56;118336.50;;;-144.97;59.48
42415;BME280;28058;46.344;17.786;2023-03-23T05:04:22;118336.50;;;-144.97;59.38
42415;BME280;28058;46.344;17.786;2023-03-23T05:06:48;118336.50;;;-144.97;58.69
42415;BME280;28058;46.344;17.786;2023-03-23T05:09:13;118336.50;;;-144.97;58.32
42415;BME280;28058;46.344;17.786;2023-03-23T05:11:39;118336.50;;;-144.97;57.71
42415;BME280;28058;46.344;17.786;2023-03-23T05:14:04;118336.50;;;-144.97;57.22
42415;BME280;28058;46.344;17.786;2023-03-23T05:16:30;118336.50;;;-144.97;57.80
42415;BME280;28058;46.344;17.786;2023-03-23T05:18:56;118336.50;;;-144.97;56.75
42415;BME280;28058;46.344;17.786;2023-03-23T05:21:24;118336.50;;;-144.97;56.63
42415;BME280;28058;46.344;17.786;2023-03-23T05:23:49;118336.50;;;-144.97;56.57
42415;BME280;28058;46.344;17.786;2023-03-23T05:26:20;118336.50;;;-144.97;56.81
42415;BME280;28058;46.344;17.786;2023-03-23T05:28:46;118336.50;;;-144.97;56.84
42415;BME280;28058;46.344;17.786;2023-03-23T05:31:13;118336.50;;;-144.97;56.36
42415;BME280;28058;46.344;17.786;2023-03-23T05:33:38;118336.50;;;-144.97;56.50
42415;BME280;28058;46.344;17.786;2023-03-23T05:36:04;118336.50;;;-144.97;55.69
42415;BME280;28058;46.344;17.786;2023-03-23T05:38:31;118336.50;;;-144.97;55.64
42415;BME280;28058;46.344;17.786;2023-03-23T05:41:00;118336.50;;;-144.97;56.45
42415;BME280;28058;46.344;17.786;2023-03-23T05:43:26;118336.50;;;-144.97;55.76
42415;BME280;28058;46.344;17.786;2023-03-23T05:45:51;118336.50;;;-144.97;56.50
42415;BME280;28058;46.344;17.786;2023-03-23T05:48:21;118336.50;;;-144.97;55.86
42415;BME280;28058;46.344;17.786;2023-03-23T05:50:48;118336.50;;;-144.97;55.42
42415;BME280;28058;46.344;17.786;2023-03-23T05:53:14;118336.50;;;-144.97;54.78
42415;BME280;28058;46.344;17.786;2023-03-23T05:55:39;118336.50;;;-144.97;55.40
42415;BME280;28058;46.344;17.786;2023-03-23T05:58:05;118336.50;;;-144.97;53.90
42415;BME280;28058;46.344;17.786;2023-03-23T06:00:30;118336.50;;;-144.97;54.32
42415;BME280;28058;46.344;17.786;2023-03-23T06:02:58;118336.50;;;-144.97;54.31
42415;BME280;28058;46.344;17.786;2023-03-23T06:05:23;118336.50;;;-144.97;53.61
42415;BME280;28058;46.344;17.786;2023-03-23T06:07:51;118336.50;;;-144.97;53.39
42415;BME280;28058;46.344;17.786;2023-03-23T06:10:17;118336.50;;;-144.97;53.58
42415;BME280;28058;46.344;17.786;2023-03-23T06:12:43;118336.50;;;-144.97;53.15
42415;BME280;28058;46.344;17.786;2023-03-23T06:15:09;118336.50;;;-144.97;53.34
42415;BME280;28058;46.344;17.786;2023-03-23T06:17:34;118336.50;;;-144.97;53.22
42415;BME280;28058;46.344;17.786;2023-03-23T06:20:02;118336.50;;;-144.97;53.15
42415;BME280;28058;46.344;17.786;2023-03-23T06:22:29;118336.50;;;-144.97;52.98
42415;BME280;28058;46.344;17.786;2023-03-23T06:24:56;118336.50;;;-144.97;53.18
42415;BME280;28058;46.344;17.786;2023-03-23T06:27:25;118336.50;;;-144.97;52.81
42415;BME280;28058;46.344;17.786;2023-03-23T06:29:52;118336.50;;;-144.97;53.42
42415;BME280;28058;46.344;17.786;2023-03-23T06:32:17;118336.50;;;-144.97;52.48
42415;BME280;28058;46.344;17.786;2023-03-23T06:34:43;118336.50;;;-144.97;52.06
42415;BME280;28058;46.344;17.786;2023-03-23T06:37:10;118336.50;;;-144.97;51.91
42415;BME280;28058;46.344;17.786;2023-03-23T06:39:35;118336.50;;;-144.97;51.59
42415;BME280;28058;46.344;17.786;2023-03-23T06:42:03;118336.50;;;-144.97;51.30
42415;BME280;28058;46.344;17.786;2023-03-23T06:44:29;118336.50;;;-144.97;50.50
42415;BME280;28058;46.344;17.786;2023-03-23T06:46:54;118336.50;;;-144.97;50.08
42415;BME280;28058;46.344;17.786;2023-03-23T06:49:20;118336.50;;;-144.97;48.59
42415;BME280;28058;46.344;17.786;2023-03-23T06:51:45;118336.50;;;-144.97;43.24
42415;BME280;28058;46.344;17.786;2023-03-23T06:54:11;118336.50;;;-144.97;38.17
42415;BME280;28058;46.344;17.786;2023-03-23T06:56:36;118336.50;;;-144.97;35.08
42415;BME280;28058;46.344;17.786;2023-03-23T06:59:02;118336.50;;;-144.97;33.75
42415;BME280;28058;46.344;17.786;2023-03-23T07:01:28;118336.50;;;-144.97;32.69
42415;BME280;28058;46.344;17.786;2023-03-23T07:03:54;118336.50;;;-144.97;31.85
42415;BME280;28058;46.344;17.786;2023-03-23T07:06:21;118336.50;;;-144.97;31.65
42415;BME280;28058;46.344;17.786;2023-03-23T07:08:47;118336.50;;;-144.97;30.89
42415;BME280;28058;46.344;17.786;2023-03-23T07:11:13;118336.50;;;-144.97;30.88
42415;BME280;28058;46.344;17.786;2023-03-23T07:13:39;118336.50;;;-144.97;30.61
42415;BME280;28058;46.344;17.786;2023-03-23T07:16:05;118336.50;;;-144.97;29.76
42415;BME280;28058;46.344;17.786;2023-03-23T07:18:32;118336.50;;;-144.97;29.76
42415;BME280;28058;46.344;17.786;2023-03-23T07:20:58;118336.50;;;-144.97;29.28
42415;BME280;28058;46.344;17.786;2023-03-23T07:23:24;118336.50;;;-144.97;29.11
42415;BME280;28058;46.344;17.786;2023-03-23T07:25:50;118336.50;;;-144.97;28.90
42415;BME280;28058;46.344;17.786;2023-03-23T07:28:16;118336.50;;;-144.97;29.37
42415;BME280;28058;46.344;17.786;2023-03-23T07:30:42;118336.50;;;-144.97;28.98
42415;BME280;28058;46.344;17.786;2023-03-23T07:33:09;118336.50;;;-144.97;29.44
42415;BME280;28058;46.344;17.786;2023-03-23T07:35:35;118336.50;;;-144.97;29.29
42415;BME280;28058;46.344;17.786;2023-03-23T07:38:01;118336.50;;;-144.97;29.88
42415;BME280;28058;46.344;17.786;2023-03-23T07:40:27;118336.50;;;-144.97;30.81
42415;BME280;28058;46.344;17.786;2023-03-23T07:42:57;118336.50;;;-144.97;31.51
42415;BME280;28058;46.344;17.786;2023-03-23T07:45:23;118336.50;;;-144.97;30.89
42415;BME280;28058;46.344;17.786;2023-03-23T07:47:49;118336.50;;;-144.97;31.84
42415;BME280;28058;46.344;17.786;2023-03-23T07:50:16;118336.50;;;-144.97;31.85
42415;BME280;28058;46.344;17.786;2023-03-23T07:52:43;118336.50;;;-144.97;30.76
42415;BME280;28058;46.344;17.786;2023-03-23T07:55:11;118336.50;;;-144.97;30.30
42415;BME280;28058;46.344;17.786;2023-03-23T07:57:44;118336.50;;;-144.97;29.46
42415;BME280;28058;46.344;17.786;2023-03-23T08:00:10;118336.50;;;-144.97;29.48
42415;BME280;28058;46.344;17.786;2023-03-23T08:02:39;118336.50;;;-144.97;29.89
42415;BME280;28058;46.344;17.786;2023-03-23T08:05:05;118336.50;;;-144.97;28.91
42415;BME280;28058;46.344;17.786;2023-03-23T08:07:30;118336.50;;;-144.97;28.86
42415;BME280;28058;46.344;17.786;2023-03-23T08:09:56;118336.50;;;-144.97;28.25
42415;BME280;28058;46.344;17.786;2023-03-23T08:12:21;118336.50;;;-144.97;28.15
42415;BME280;28058;46.344;17.786;2023-03-23T08:14:47;118336.50;;;-144.97;28.27
42415;BME280;28058;46.344;17.786;2023-03-23T08:17:13;118336.50;;;-144.97;28.02
42415;BME280;28058;46.344;17.786;2023-03-23T08:19:39;118336.50;;;-144.97;27.70
42415;BME280;28058;46.344;17.786;2023-03-23T08:22:05;118336.50;;;-144.97;28.23
42415;BME280;28058;46.344;17.786;2023-03-23T08:24:32;118336.50;;;-144.97;28.28
42415;BME280;28058;46.344;17.786;2023-03-23T08:26:59;118336.50;;;-144.97;27.52
42415;BME280;28058;46.344;17.786;2023-03-23T08:29:25;118336.50;;;-144.97;27.30
42415;BME280;28058;46.344;17.786;2023-03-23T08:31:51;118336.50;;;-144.97;27.58
42415;BME280;28058;46.344;17.786;2023-03-23T08:34:17;118336.50;;;-144.97;27.55
42415;BME280;28058;46.344;17.786;2023-03-23T08:36:43;118336.50;;;-144.97;27.86
42415;BME280;28058;46.344;17.786;2023-03-23T08:39:10;118336.50;;;-144.97;28.71
42415;BME280;28058;46.344;17.786;2023-03-23T08:41:36;118336.50;;;-144.97;27.65
42415;BME280;28058;46.344;17.786;2023-03-23T08:44:02;118336.50;;;-144.97;27.96
42415;BME280;28058;46.344;17.786;2023-03-23T08:46:28;118336.50;;;-144.97;27.93
42415;BME280;28058;46.344;17.786;2023-03-23T08:48:54;118336.50;;;-144.97;29.29
42415;BME280;28058;46.344;17.786;2023-03-23T08:51:20;118336.50;;;-144.97;28.99
42415;BME280;28058;46.344;17.786;2023-03-23T08:53:46;118336.50;;;-144.97;29.03
42415;BME280;28058;46.344;17.786;2023-03-23T08:56:12;118336.50;;;-144.97;28.63
42415;BME280;28058;46.344;17.786;2023-03-23T08:58:39;118336.50;;;-144.97;28.26
42415;BME280;28058;46.344;17.786;2023-03-23T09:01:06;118336.50;;;-144.97;28.73
42415;BME280;28058;46.344;17.786;2023-03-23T09:03:34;118336.50;;;-144.97;28.81
42415;BME280;28058;46.344;17.786;2023-03-23T09:06:05;118336.50;;;-144.97;29.71
42415;BME280;28058;46.344;17.786;2023-03-23T09:08:31;118336.50;;;-144.97;29.67
42415;BME280;28058;46.344;17.786;2023-03-23T09:11:02;118336.50;;;-144.97;28.82
42415;BME280;28058;46.344;17.786;2023-03-23T09:13:28;118336.50;;;-144.97;29.65
42415;BME280;28058;46.344;17.786;2023-03-23T09:15:55;118336.50;;;-144.97;28.67
42415;BME280;28058;46.344;17.786;2023-03-23T09:18:20;118336.50;;;-144.97;29.14
42415;BME280;28058;46.344;17.786;2023-03-23T09:20:49;118336.50;;;-144.97;29.34
42415;BME280;28058;46.344;17.786;2023-03-23T09:23:16;118336.50;;;-144.97;29.56
42415;BME280;28058;46.344;17.786;2023-03-23T09:25:42;118336.50;;;-144.97;30.52
42415;BME280;28058;46.344;17.786;2023-03-23T09:28:08;118336.50;;;-144.97;29.79
42415;BME280;28058;46.344;17.786;2023-03-23T09:30:35;118336.50;;;-144.97;29.88
42415;BME280;28058;46.344;17.786;2023-03-23T09:33:03;118336.50;;;-144.97;30.89
42415;BME280;28058;46.344;17.786;2023-03-23T09:35:31;118336.50;;;-144.97;30.64
42415;BME280;28058;46.344;17.786;2023-03-23T09:37:59;118336.50;;;-144.97;31.09
42415;BME280;28058;46.344;17.786;2023-03-23T09:40:31;118336.50;;;-144.97;31.57
42415;BME280;28058;46.344;17.786;2023-03-23T09:48:53;118336.50;;;-144.97;31.44
42415;BME280;28058;46.344;17.786;2023-03-23T09:51:47;118336.50;;;-144.97;31.54
42415;BME280;28058;46.344;17.786;2023-03-23T09:54:26;118336.50;;;-144.97;32.06
42415;BME280;28058;46.344;17.786;2023-03-23T09:56:53;118336.50;;;-144.97;32.29
42415;BME280;28058;46.344;17.786;2023-03-23T09:59:34;118336.50;;;-144.97;32.49
42415;BME280;28058;46.344;17.786;2023-03-23T10:02:16;118336.50;;;-144.97;32.42
42415;BME280;28058;46.344;17.786;2023-03-23T10:04:44;118336.50;;;-144.97;32.49
42415;BME280;28058;46.344;17.786;2023-03-23T10:07:14;118336.50;;;-144.97;31.93
42415;BME280;28058;46.344;17.786;2023-03-23T10:09:42;118336.50;;;-144.97;31.96
42415;BME280;28058;46.344;17.786;2023-03-23T10:12:42;118336.50;;;-144.97;32.58
42415;BME280;28058;46.344;17.786;2023-03-23T10:15:14;118336.50;;;-144.97;32.47
42415;BME280;28058;46.344;17.786;2023-03-23T10:18:12;118336.50;;;-144.97;31.53
42415;BME280;28058;46.344;17.786;2023-03-23T10:25:51;118336.50;;;-144.97;31.70
42415;BME280;28058;46.344;17.786;2023-03-23T10:28:20;118336.50;;;-144.97;31.29
42415;BME280;28058;46.344;17.786;2023-03-23T10:30:51;118336.50;;;-144.97;32.24
42415;BME280;28058;46.344;17.786;2023-03-23T10:33:24;118336.50;;;-144.97;31.23
42415;BME280;28058;46.344;17.786;2023-03-23T10:35:56;118336.50;;;-144.97;32.27
42415;BME280;28058;46.344;17.786;2023-03-23T10:38:36;118336.50;;;-144.97;31.82
42415;BME280;28058;46.344;17.786;2023-03-23T10:41:10;118336.50;;;-144.97;32.75
42415;BME280;28058;46.344;17.786;2023-03-23T10:43:39;118336.50;;;-144.97;31.25
42415;BME280;28058;46.344;17.786;2023-03-23T10:49:15;118336.50;;;-144.97;31.09
42415;BME280;28058;46.344;17.786;2023-03-23T10:51:44;118336.50;;;-144.97;31.51
42415;BME280;28058;46.344;17.786;2023-03-23T10:54:25;118336.50;;;-144.97;30.91
42415;BME280;28058;46.344;17.786;2023-03-23T10:56:51;118336.50;;;-144.97;32.38
42415;BME280;28058;46.344;17.786;2023-03-23T10:59:27;118336.50;;;-144.97;32.34
42415;BME280;28058;46.344;17.786;2023-03-23T11:01:55;118336.50;;;-144.97;32.50
42415;BME280;28058;46.344;17.786;2023-03-23T11:04:22;118336.50;;;-144.97;32.44
42415;BME280;28058;46.344;17.786;2023-03-23T11:06:51;118336.50;;;-144.97;32.65
42415;BME280;28058;46.344;17.786;2023-03-23T11:09:20;118336.50;;;-144.97;31.78
42415;BME280;28058;46.344;17.786;2023-03-23T11:11:52;118336.50;;;-144.97;32.52
42415;BME280;28058;46.344;17.786;2023-03-23T11:14:33;118336.50;;;-144.97;31.71
42415;BME280;28058;46.344;17.786;2023-03-23T11:17:04;118336.50;;;-144.97;32.68
42415;BME280;28058;46.344;17.786;2023-03-23T11:19:34;118336.50;;;-144.97;31.66
42415;BME280;28058;46.344;17.786;2023-03-23T11:24:44;118336.50;;;-144.97;31.60
42415;BME280;28058;46.344;17.786;2023-03-23T11:27:11;118336.50;;;-144.97;32.13
42415;BME280;28058;46.344;17.786;2023-03-23T11:32:15;118336.50;;;-144.97;32.34
42415;BME280;28058;46.344;17.786;2023-03-23T11:34:48;118336.50;;;-144.97;32.68
42415;BME280;28058;46.344;17.786;2023-03-23T11:39:47;118336.50;;;-144.97;33.13
42415;BME280;28058;46.344;17.786;2023-03-23T11:42:24;118336.50;;;-144.97;33.06
42415;BME280;28058;46.344;17.786;2023-03-23T11:45:03;118336.50;;;-144.97;33.00
42415;BME280;28058;46.344;17.786;2023-03-23T11:47:43;118336.50;;;-144.97;33.54
42415;BME280;28058;46.344;17.786;2023-03-23T11:50:23;118336.50;;;-144.97;32.93
42415;BME280;28058;46.344;17.786;2023-03-23T11:52:54;118336.50;;;-144.97;33.89
42415;BME280;28058;46.344;17.786;2023-03-23T11:55:28;118336.50;;;-144.97;34.21
42415;BME280;28058;46.344;17.786;2023-03-23T11:58:00;118336.50;;;-144.97;34.10
42415;BME280;28058;46.344;17.786;2023-03-23T12:00:25;118336.50;;;-144.97;33.52
42415;BME280;28058;46.344;17.786;2023-03-23T12:05:45;118336.50;;;-144.97;33.49
42415;BME280;28058;46.344;17.786;2023-03-23T12:13:48;118336.50;;;-144.97;33.84
42415;BME280;28058;46.344;17.786;2023-03-23T12:26:47;118336.50;;;-144.97;33.66
42415;BME280;28058;46.344;17.786;2023-03-23T12:40:04;118336.50;;;-144.97;32.86
42415;BME280;28058;46.344;17.786;2023-03-23T12:52:38;118336.50;;;-144.97;32.56
42415;BME280;28058;46.344;17.786;2023-03-23T12:55:12;118336.50;;;-144.97;32.72
42415;BME280;28058;46.344;17.786;2023-03-23T12:57:43;118336.50;;;-144.97;33.20
42415;BME280;28058;46.344;17.786;2023-03-23T13:00:17;118336.50;;;-144.97;32.64
42415;BME280;28058;46.344;17.786;2023-03-23T13:02:46;118336.50;;;-144.97;31.99
42415;BME280;28058;46.344;17.786;2023-03-23T13:07:50;118336.50;;;-144.97;33.00
42415;BME280;28058;46.344;17.786;2023-03-23T13:12:44;118336.50;;;-144.97;33.41
42415;BME280;28058;46.344;17.786;2023-03-23T13:17:52;118336.50;;;-144.97;33.80
42415;BME280;28058;46.344;17.786;2023-03-23T13:28:25;118336.50;;;-144.97;34.19
42415;BME280;28058;46.344;17.786;2023-03-23T13:31:13;118336.50;;;-144.97;34.30
42415;BME280;28058;46.344;17.786;2023-03-23T13:33:44;118336.50;;;-144.97;34.30
42415;BME280;28058;46.344;17.786;2023-03-23T13:36:11;118336.50;;;-144.97;34.24
42415;BME280;28058;46.344;17.786;2023-03-23T13:38:38;118336.50;;;-144.97;34.44
42415;BME280;28058;46.344;17.786;2023-03-23T13:41:09;118336.50;;;-144.97;34.56
42415;BME280;28058;46.344;17.786;2023-03-23T13:43:37;118336.50;;;-144.97;34.88
42415;BME280;28058;46.344;17.786;2023-03-23T13:48:45;118336.50;;;-144.97;34.21
42415;BME280;28058;46.344;17.786;2023-03-23T13:51:23;118336.50;;;-144.97;34.86
42415;BME280;28058;46.344;17.786;2023-03-23T13:53:50;118336.50;;;-144.97;34.75
42415;BME280;28058;46.344;17.786;2023-03-23T13:56:18;118336.50;;;-144.97;35.00
42415;BME280;28058;46.344;17.786;2023-03-23T13:58:46;118336.50;;;-144.97;35.18
42415;BME280;28058;46.344;17.786;2023-03-23T14:01:14;118336.50;;;-144.97;34.86
42415;BME280;28058;46.344;17.786;2023-03-23T14:03:42;118336.50;;;-144.97;35.78
42415;BME280;28058;46.344;17.786;2023-03-23T14:06:13;118336.50;;;-144.97;34.79